createdAt,value
2023-02-03T00:00:36.784Z,101096.53
2023-02-03T00:04:09.017Z,101094.16
2023-02-03T00:07:43.624Z,101096.62
2023-02-03T00:11:09.779Z,101100.56
2023-02-03T00:14:45.458Z,101097.13
2023-02-03T00:18:28.819Z,101116.34
2023-02-03T00:21:43.075Z,101117.97
2023-02-03T00:25:15.721Z,101116.22
2023-02-03T00:28:54.656Z,101137.88
2023-02-03T00:32:26.154Z,101145.34
2023-02-03T00:36:06.406Z,101149.09
2023-02-03T00:39:44.051Z,101155.91
2023-02-03T00:43:14.417Z,101158.91
2023-02-03T00:46:48.675Z,101165.94
2023-02-03T00:50:19.003Z,101166.63
2023-02-03T00:53:40.213Z,101164.03
2023-02-03T00:57:16.308Z,101166.81
2023-02-03T01:00:35.117Z,101164.72
2023-02-03T01:04:08.716Z,101173.34
2023-02-03T01:07:42.427Z,101161.28
2023-02-03T01:11:20.242Z,101174.00
2023-02-03T01:14:53.203Z,101186.25
2023-02-03T01:18:21.314Z,101191.62
2023-02-03T01:21:54.608Z,101194.38
2023-02-03T01:25:27.665Z,101187.22
2023-02-03T01:28:50.534Z,101192.28
2023-02-03T01:32:08.712Z,101190.50
2023-02-03T01:35:44.448Z,101205.63
2023-02-03T01:39:04.432Z,101202.38
2023-02-03T01:42:22.725Z,101201.88
2023-02-03T01:45:46.774Z,101205.16
2023-02-03T01:49:36.630Z,101202.87
2023-02-03T01:53:13.308Z,101215.38
2023-02-03T01:56:57.186Z,101208.38
2023-02-03T02:00:37.509Z,101214.56
2023-02-03T02:03:57.685Z,101220.78
2023-02-03T02:07:38.142Z,101200.28
2023-02-03T02:10:54.725Z,101226.31
2023-02-03T02:14:19.983Z,101225.00
2023-02-03T02:17:49.024Z,101214.47
2023-02-03T02:21:29.164Z,101212.47
2023-02-03T02:25:28.976Z,101206.78
2023-02-03T02:29:08.815Z,101211.38
2023-02-03T02:32:34.847Z,101212.66
2023-02-03T02:44:20.361Z,101218.69
2023-02-03T02:47:40.975Z,101220.47
2023-02-03T02:51:16.819Z,101230.25
2023-02-03T02:54:57.904Z,101227.00
2023-02-03T02:58:19.540Z,101237.72
2023-02-03T03:01:36.858Z,101242.28
2023-02-03T03:05:15.852Z,101243.53
2023-02-03T03:08:42.599Z,101250.66
2023-02-03T03:12:26.318Z,101245.78
2023-02-03T03:15:46.053Z,101246.25
2023-02-03T03:19:29.373Z,101239.22
2023-02-03T03:23:01.882Z,101235.53
2023-02-03T03:26:36.263Z,101241.22
2023-02-03T03:30:21.702Z,101236.87
2023-02-03T03:33:55.990Z,101233.03
2023-02-03T03:37:37.333Z,101244.44
2023-02-03T03:41:21.198Z,101244.16
2023-02-03T03:44:55.019Z,101243.16
2023-02-03T03:48:17.717Z,101257.41
2023-02-03T03:51:50.565Z,101251.66
2023-02-03T03:55:28.876Z,101251.72
2023-02-03T03:59:13.922Z,101257.53
2023-02-03T04:02:55.946Z,101249.81
2023-02-03T04:06:13.853Z,101246.16
2023-02-03T04:09:32.321Z,101248.19
2023-02-03T04:12:53.924Z,101241.28
2023-02-03T04:16:24.774Z,101239.25
2023-02-03T04:19:42.114Z,101230.22
2023-02-03T04:23:20.072Z,101229.09
2023-02-03T04:26:59.002Z,101224.50
2023-02-03T04:30:18.396Z,101227.22
2023-02-03T04:33:51.324Z,101224.44
2023-02-03T04:48:07.924Z,101234.16
2023-02-03T04:51:36.426Z,101229.63
2023-02-03T04:55:15.389Z,101226.28
2023-02-03T04:58:34.390Z,101223.13
2023-02-03T05:01:54.850Z,101219.22
2023-02-03T05:05:31.731Z,101220.19
2023-02-03T05:09:07.457Z,101208.22
2023-02-03T05:12:43.321Z,101206.00
2023-02-03T05:16:17.248Z,101207.78
2023-02-03T05:19:52.684Z,101209.22
2023-02-03T05:23:28.536Z,101215.97
2023-02-03T05:26:50.503Z,101216.50
2023-02-03T05:30:09.888Z,101216.63
2023-02-03T05:33:37.426Z,101216.09
2023-02-03T05:37:06.919Z,101212.31
2023-02-03T05:41:03.414Z,101216.44
2023-02-03T05:44:21.462Z,101211.41
2023-02-03T05:47:40.032Z,101213.34
2023-02-03T05:51:15.205Z,101213.66
2023-02-03T05:57:59.024Z,101227.72
2023-02-03T06:01:32.462Z,101228.03
2023-02-03T06:05:06.389Z,101231.62
2023-02-03T06:08:36.833Z,101235.72
2023-02-03T06:11:56.039Z,101226.53
2023-02-03T06:15:20.235Z,101226.09
2023-02-03T06:18:47.924Z,101226.13
2023-02-03T06:22:06.067Z,101232.00
2023-02-03T06:25:44.298Z,101224.38
2023-02-03T06:29:16.739Z,101221.13
2023-02-03T06:32:50.696Z,101224.72
2023-02-03T06:36:15.607Z,101228.62
2023-02-03T06:39:49.741Z,101229.94
2023-02-03T06:43:06.863Z,101225.34
2023-02-03T06:46:28.561Z,101231.72
2023-02-03T06:50:05.131Z,101236.94
2023-02-03T06:53:40.820Z,101246.38
2023-02-03T06:57:00.102Z,101236.44
2023-02-03T07:00:29.411Z,101237.41
2023-02-03T07:04:08.360Z,101238.22
2023-02-03T07:07:42.187Z,101233.50
2023-02-03T07:11:23.842Z,101233.00
2023-02-03T07:14:59.381Z,101221.91
2023-02-03T07:18:53.330Z,101235.44
2023-02-03T07:25:54.744Z,101221.75
2023-02-03T07:29:19.887Z,101227.63
2023-02-03T07:32:58.001Z,101222.91
2023-02-03T07:47:43.889Z,101244.38
2023-02-03T07:51:18.739Z,101245.16
2023-02-03T07:54:46.022Z,101253.47
2023-02-03T07:58:03.900Z,101252.59
2023-02-03T08:01:35.736Z,101259.78
2023-02-03T08:05:03.684Z,101253.78
2023-02-03T08:08:46.664Z,101260.84
2023-02-03T08:15:50.849Z,101265.41
2023-02-03T08:19:41.244Z,101256.94
2023-02-03T08:23:03.372Z,101254.81
2023-02-03T08:26:39.637Z,101263.44
2023-02-03T08:37:51.657Z,101266.41
2023-02-03T08:41:31.435Z,101258.25
2023-02-03T08:45:06.633Z,101273.06
2023-02-03T08:48:41.533Z,101268.97
2023-02-03T08:52:19.617Z,101263.47
2023-02-03T09:02:56.930Z,101273.87
2023-02-03T09:10:25.963Z,101291.13
2023-02-03T09:13:46.422Z,101301.25
2023-02-03T09:20:47.033Z,101295.88
2023-02-03T09:24:15.664Z,101293.78
2023-02-03T09:27:44.394Z,101291.16
2023-02-03T09:31:20.994Z,101283.31
2023-02-03T09:34:57.534Z,101282.56
2023-02-03T09:38:35.299Z,101270.44
2023-02-03T09:46:31.181Z,101259.06
2023-02-03T09:50:06.929Z,101249.19
2023-02-03T09:54:33.725Z,101235.38
2023-02-03T10:02:48.160Z,101214.59
2023-02-03T10:06:51.139Z,101205.16
2023-02-03T10:10:49.177Z,101201.12
2023-02-03T10:14:40.349Z,101188.59
2023-02-03T10:18:23.451Z,101182.87
2023-02-03T10:22:04.038Z,101168.72
2023-02-03T10:26:08.990Z,101158.97
2023-02-03T10:29:41.881Z,101156.69
2023-02-03T10:33:30.535Z,101142.50
2023-02-03T10:37:19.992Z,101130.16
2023-02-03T10:40:48.065Z,101122.97
2023-02-03T10:44:20.454Z,101127.03
2023-02-03T10:47:59.113Z,101123.16
2023-02-03T10:52:05.020Z,101109.50
2023-02-03T10:55:33.965Z,101104.13
2023-02-03T10:59:33.724Z,101092.06
2023-02-03T11:03:26.361Z,101090.13
2023-02-03T11:07:07.879Z,101076.78
2023-02-03T11:10:41.302Z,101070.94
2023-02-03T11:17:54.816Z,101048.00
2023-02-03T11:21:33.936Z,101043.78
2023-02-03T11:25:28.148Z,101024.59
2023-02-03T11:29:08.447Z,101024.28
2023-02-03T11:32:43.095Z,101017.13
2023-02-03T11:36:20.784Z,101000.53
2023-02-03T11:40:20.579Z,101016.81
2023-02-03T11:43:56.132Z,101000.22
2023-02-03T11:47:32.539Z,100995.34
2023-02-03T11:51:34.449Z,100983.50
2023-02-03T11:55:41.122Z,100966.75
2023-02-03T11:59:20.960Z,100954.03
2023-02-03T12:03:16.469Z,100944.63
2023-02-03T12:07:03.293Z,100926.38
2023-02-03T12:11:14.254Z,100914.53
2023-02-03T12:15:02.405Z,100909.34
2023-02-03T12:19:03.857Z,100894.50
2023-02-03T12:22:49.041Z,100886.81
2023-02-03T12:26:52.481Z,100876.09
2023-02-03T12:30:37.573Z,100875.44
2023-02-03T12:34:11.271Z,100867.22
2023-02-03T12:38:08.136Z,100841.97
2023-02-03T12:41:42.547Z,100835.44
2023-02-03T12:45:18.591Z,100822.78
2023-02-03T12:48:48.768Z,100803.91
2023-02-03T12:52:50.595Z,100798.41
2023-02-03T12:56:31.973Z,100788.75
2023-02-03T13:00:17.191Z,100764.97
2023-02-03T13:04:18.912Z,100771.81
2023-02-03T13:08:01.774Z,100760.13
2023-02-03T13:11:55.505Z,100744.16
2023-02-03T13:15:35.921Z,100741.63
2023-02-03T13:19:26.241Z,100718.63
2023-02-03T13:22:56.866Z,100703.75
2023-02-03T13:26:49.152Z,100697.81
2023-02-03T13:30:45.815Z,100698.59
2023-02-03T13:34:36.851Z,100690.53
2023-02-03T13:38:28.662Z,100679.19
2023-02-03T13:42:26.976Z,100670.59
2023-02-03T13:46:01.034Z,100660.37
2023-02-03T13:49:37.068Z,100647.63
2023-02-03T13:53:19.967Z,100644.06
2023-02-03T13:57:07.132Z,100636.41
2023-02-03T14:01:06.509Z,100635.44
2023-02-03T14:04:36.971Z,100633.47
2023-02-03T14:08:30.597Z,100614.59
2023-02-03T14:12:18.204Z,100613.87
2023-02-03T14:20:23.775Z,100608.22
2023-02-03T14:23:55.576Z,100595.34
2023-02-03T14:27:44.948Z,100588.75
2023-02-03T14:35:22.770Z,100571.25
2023-02-03T14:39:18.889Z,100566.53
2023-02-03T14:43:10.112Z,100568.16
2023-02-03T14:46:36.382Z,100562.22
2023-02-03T14:50:31.448Z,100564.03
2023-02-03T14:54:32.919Z,100540.06
2023-02-03T14:58:18.466Z,100535.47
2023-02-03T15:01:52.333Z,100535.16
2023-02-03T15:09:00.853Z,100532.81
2023-02-03T15:12:31.454Z,100518.78
2023-02-03T15:16:20.668Z,100512.44
2023-02-03T15:19:57.696Z,100499.19
2023-02-03T15:23:56.731Z,100499.62
2023-02-03T15:27:28.921Z,100491.78
2023-02-03T15:31:13.533Z,100490.91
2023-02-03T15:35:01.470Z,100481.94
2023-02-03T15:38:42.086Z,100476.31
2023-02-03T15:42:27.383Z,100469.94
2023-02-03T15:46:07.198Z,100468.13
2023-02-03T15:49:35.521Z,100471.78
2023-02-03T15:53:19.970Z,100457.78
2023-02-03T15:57:47.266Z,100453.19
2023-02-03T16:01:51.244Z,100453.78
2023-02-03T16:06:02.044Z,100449.38
2023-02-03T16:14:31.216Z,100451.59
2023-02-03T16:18:35.591Z,100449.00
2023-02-03T16:22:47.945Z,100434.34
2023-02-03T16:27:13.740Z,100425.88
2023-02-03T16:35:46.852Z,100415.44
2023-02-03T16:40:02.066Z,100409.41
2023-02-03T16:44:12.776Z,100390.97
2023-02-03T16:48:10.023Z,100383.72
2023-02-03T16:52:15.046Z,100378.91
2023-02-03T16:56:04.781Z,100370.44
2023-02-03T17:08:02.824Z,100335.16
2023-02-03T17:11:45.380Z,100317.12
2023-02-03T17:37:17.569Z,100265.34
2023-02-03T17:53:54.026Z,100238.84
2023-02-03T18:01:25.152Z,100224.41
2023-02-03T18:05:00.847Z,100224.00
2023-02-03T18:12:30.257Z,100213.75
2023-02-03T18:16:05.073Z,100207.13
2023-02-03T18:19:44.458Z,100203.34
2023-02-03T18:23:17.878Z,100198.31
2023-02-03T18:26:51.958Z,100198.91
2023-02-03T18:50:13.801Z,100175.00
2023-02-03T18:58:05.409Z,100183.22
2023-02-03T21:35:04.466Z,100154.00
2023-02-03T21:42:36.300Z,100167.25
2023-02-03T21:54:37.441Z,100160.06
2023-02-03T21:58:39.235Z,100177.53
2023-02-03T22:03:50.001Z,100165.25
2023-02-03T22:06:56.691Z,100158.41
2023-02-03T22:37:03.862Z,100176.41
2023-02-03T22:48:34.192Z,100215.06
2023-02-03T22:56:01.569Z,100239.41
2023-02-03T22:59:21.979Z,100240.78
2023-02-03T23:02:59.915Z,100234.94
2023-02-03T23:07:03.742Z,100231.09
2023-02-03T23:11:14.295Z,100233.13
2023-02-03T23:14:50.989Z,100220.22
2023-02-03T23:18:31.405Z,100225.09
2023-02-03T23:22:15.832Z,100209.94
2023-02-03T23:25:57.234Z,100207.75
2023-02-03T23:40:13.568Z,100210.34
2023-02-03T23:43:52.118Z,100200.13
2023-02-03T23:47:26.111Z,100206.13
2023-02-03T23:51:04.452Z,100203.31
2023-02-03T23:54:49.238Z,100189.28
2023-02-03T23:58:25.662Z,100200.31
